OOCL Busan — VRDN3 — position and weather

sailwx.info

Track history (hours):
 
Tides and Currents Weather Stations Pressure Air Temp Water Temp Dewpoint Dewpoint Depression Visibility Wind Speed Wind Dir Waves Ship Positions

OOCL Busan

Last reported at 2018-Apr-16 09:41 UTC. Time now 2018-Apr-23 03:51 UTC.
Position N 01°14' E 103°27'.

Length 260 m; draft 12.2 m.

Type: Cargo ship. MMSI: 477007100.

Date/timePositionNaut miles runAvg speedWind from/ knotsBaromVisibWave heightAir tempDewpointWater temp
2018-Apr-16 09:41N 01°14' E 103°27'419.7
2018-Apr-16 09:29N 01°13' E 103°31'816.2
2018-Apr-16 08:59N 01°12' E 103°39'613.3
2018-Apr-16 08:30N 01°16' E 103°45'3 5.2
2018-Apr-16 07:58N 01°16' E 103°47'0 0.1
2018-Apr-16 07:28N 01°16' E 103°47'0 0.0
2018-Apr-16 06:58N 01°16' E 103°47'0 0.0
2018-Apr-16 06:28N 01°16' E 103°47'0 0.0
2018-Apr-16 05:58N 01°16' E 103°47'0 0.0
2018-Apr-16 05:28N 01°16' E 103°47'0 0.0
2018-Apr-16 04:58N 01°16' E 103°47'0 0.0
2018-Apr-16 04:25N 01°16' E 103°47'0 0.0
2018-Apr-16 03:58N 01°16' E 103°47'0 0.0
2018-Apr-16 03:28N 01°16' E 103°47'0 0.0
2018-Apr-16 02:58N 01°16' E 103°47'0 0.0
2018-Apr-16 02:28N 01°16' E 103°47'0 0.0
2018-Apr-16 01:58N 01°16' E 103°47'0 0.0
2018-Apr-16 01:28N 01°16' E 103°47'0 0.0
2018-Apr-16 00:58N 01°16' E 103°47'0 0.0
2018-Apr-16 00:28N 01°16' E 103°47'0 0.0
2018-Apr-15 23:58N 01°16' E 103°47'0 0.0
2018-Apr-15 23:28N 01°16' E 103°47'0 0.0
2018-Apr-15 22:58N 01°16' E 103°47'0 0.0
2018-Apr-15 22:28N 01°16' E 103°47'0 0.0
2018-Apr-15 21:58N 01°16' E 103°47'0 0.0
2018-Apr-15 21:28N 01°16' E 103°47'0 0.0
2018-Apr-15 20:58N 01°16' E 103°47'0 0.0
2018-Apr-15 20:28N 01°16' E 103°47'0 0.0
2018-Apr-15 19:58N 01°16' E 103°47'0 0.0
2018-Apr-15 19:28N 01°16' E 103°47'0 0.0
2018-Apr-15 18:58N 01°16' E 103°47'0 0.0
2018-Apr-15 18:28N 01°16' E 103°47'0 0.0
2018-Apr-15 17:58N 01°16' E 103°47'0 0.0
2018-Apr-15 17:28N 01°16' E 103°47'0 0.0
2018-Apr-15 16:52N 01°16' E 103°47'0 0.1
2018-Apr-15 16:29N 01°16' E 103°47'1 2.1
2018-Apr-15 16:00N 01°15' E 103°47'3 5.4
2018-Apr-15 15:30N 01°13' E 103°49'713.3
2018-Apr-15 15:00N 01°14' E 103°55'2 4.7
2018-Apr-15 14:31N 01°15' E 103°57'3 5.9
2018-Apr-15 14:00N 01°15' E 104°00'1710.7
2018-Apr-15 12:23N 01°18' E 104°18'410.5
2018-Apr-15 11:58N 01°20' E 104°21'  
2018-Apr-11 17:10N 23°11' E 117°43'419.9
2018-Apr-11 16:59N 23°15' E 117°45'919.5
2018-Apr-11 16:30N 23°23' E 117°49'1119.8
2018-Apr-11 15:59N 23°31' E 117°56'919.7
2018-Apr-11 15:30N 23°38' E 118°03'1019.6
2018-Apr-11 15:00N 23°47' E 118°08'1019.4
2018-Apr-11 14:30N 23°55' E 118°14'1019.3
2018-Apr-11 14:00N 24°03' E 118°19'918.5
2018-Apr-11 13:30N 24°13' E 118°18'919.1
2018-Apr-11 13:00N 24°19' E 118°11'713.5
2018-Apr-11 12:30N 24°24' E 118°06'510.1
2018-Apr-11 12:00N 24°29' E 118°04'2 3.6
2018-Apr-11 11:28N 24°31' E 118°05'0 0.0
2018-Apr-11 10:58N 24°31' E 118°05'0 0.0
2018-Apr-11 10:28N 24°31' E 118°05'0 0.0
2018-Apr-11 09:58N 24°31' E 118°05'0 0.0
2018-Apr-11 09:28N 24°31' E 118°05'0 0.0
2018-Apr-11 08:58N 24°31' E 118°05'0 0.0
2018-Apr-11 08:28N 24°31' E 118°05'0 0.0
2018-Apr-11 07:58N 24°31' E 118°05'0 0.0
2018-Apr-11 07:28N 24°31' E 118°05'0 0.0
2018-Apr-11 06:58N 24°31' E 118°05'0 0.0
2018-Apr-11 06:28N 24°31' E 118°05'0 0.0
2018-Apr-11 05:58N 24°31' E 118°05'0 0.0
2018-Apr-11 05:19N 24°31' E 118°05'0 0.0
2018-Apr-11 04:55N 24°31' E 118°05'0 0.0
2018-Apr-11 04:28N 24°31' E 118°05'0 0.0
2018-Apr-11 03:58N 24°31' E 118°05'0 0.0
2018-Apr-11 03:28N 24°31' E 118°05'0 0.0
2018-Apr-11 02:58N 24°31' E 118°05'0 0.0
2018-Apr-11 02:28N 24°31' E 118°05'1 1.1
2018-Apr-11 02:00N 24°30' E 118°04'5 9.1
2018-Apr-11 01:30N 24°26' E 118°04'510.6
2018-Apr-11 01:00N 24°22' E 118°08'5 9.2
2018-Apr-11 00:30N 24°19' E 118°12'611.7
2018-Apr-11 00:00N 24°15' E 118°17'713.5
2018-Apr-10 23:30N 24°14' E 118°24'815.2
2018-Apr-10 23:00N 24°16' E 118°32'817.0
2018-Apr-10 22:30N 24°20' E 118°40'  
2018-Apr-07 23:43N 31°15' E 121°59'418.9
2018-Apr-07 23:30N 31°16' E 121°55'3 5.9
2018-Apr-07 22:59N 31°16' E 121°51'918.2
2018-Apr-07 22:31N 31°20' E 121°42'1 2.2
2018-Apr-07 21:55N 31°20' E 121°41'5 9.6
2018-Apr-07 21:24N 31°22' E 121°35'0 0.1
2018-Apr-07 20:48N 31°22' E 121°35'0 0.0
2018-Apr-07 20:30N 31°22' E 121°35'0 0.0
2018-Apr-07 19:33N 31°22' E 121°35'0 0.1
2018-Apr-07 19:30N 31°22' E 121°35'0 0.0
2018-Apr-07 19:00N 31°22' E 121°35'0 0.0
2018-Apr-07 18:24N 31°22' E 121°35'0 0.0
2018-Apr-07 17:42N 31°22' E 121°35'0 0.3
2018-Apr-07 17:30N 31°22' E 121°35'0 0.1
2018-Apr-07 16:54N 31°22' E 121°35'0 0.0
2018-Apr-07 16:30N 31°22' E 121°35'0 0.1
2018-Apr-07 15:48N 31°22' E 121°35'0 0.1
2018-Apr-07 15:18N 31°22' E 121°35'0 0.0
2018-Apr-07 14:54N 31°22' E 121°35'0 0.0
2018-Apr-07 08:54N 31°22' E 121°35'0 0.0
2018-Apr-07 07:42N 31°22' E 121°35'0 0.1
2018-Apr-07 07:12N 31°22' E 121°35'0 0.0
2018-Apr-07 06:42N 31°22' E 121°35'0 0.0
2018-Apr-07 06:18N 31°22' E 121°35'0 0.0
2018-Apr-07 06:00N 31°22' E 121°35'0 0.0
2018-Apr-07 05:12N 31°22' E 121°35'0 0.0
2018-Apr-07 04:54N 31°22' E 121°35'0 0.0
2018-Apr-07 04:24N 31°22' E 121°35'0 0.0
2018-Apr-07 03:18N 31°22' E 121°35'0 0.0
2018-Apr-07 02:18N 31°22' E 121°35'0 0.0
2018-Apr-07 01:54N 31°22' E 121°35'0 0.0
2018-Apr-07 01:18N 31°22' E 121°35'0 0.0
2018-Apr-07 00:54N 31°22' E 121°35'0 0.0
2018-Apr-07 00:30N 31°22' E 121°35'0 0.0
2018-Apr-06 23:54N 31°22' E 121°35'0 0.0
2018-Apr-06 22:26N 31°22' E 121°35'0 0.0
2018-Apr-06 22:00N 31°22' E 121°35'0 0.5
2018-Apr-06 21:28N 31°23' E 121°35'0 0.3
2018-Apr-06 20:56N 31°23' E 121°35'0 1.0
2018-Apr-06 20:29N 31°23' E 121°36'2 5.0
2018-Apr-06 20:00N 31°22' E 121°38'510.3
2018-Apr-06 19:29N 31°19' E 121°44'4 7.7
2018-Apr-06 19:00N 31°18' E 121°48'511.1
2018-Apr-06 18:30N 31°16' E 121°54'612.0
2018-Apr-06 18:00N 31°15' E 122°01'510.7
2018-Apr-06 17:30N 31°13' E 122°07'510.1
2018-Apr-06 16:59N 31°10' E 122°12'5 9.9
2018-Apr-06 16:30N 31°07' E 122°16'5 9.3
2018-Apr-06 16:00N 31°06' E 122°22'4 8.7
2018-Apr-06 15:29N 31°08' E 122°27'  
Track history (hours):
 
Tides and Currents Weather Stations Pressure Air Temp Water Temp Dewpoint Dewpoint Depression Visibility Wind Speed Wind Dir Waves Ship Positions

OOCL Busan

Last reported at 2018-Apr-16 09:41 UTC. Time now 2018-Apr-23 03:51 UTC.
Position N 01°14' E 103°27'.

Length 260 m; draft 12.2 m.

Type: Cargo ship. MMSI: 477007100.

Date/timePositionNaut miles runAvg speedWind from/ knotsBaromVisibWave heightAir tempDewpointWater temp
2018-Apr-16 09:41N 01°14' E 103°27'419.7
2018-Apr-16 09:29N 01°13' E 103°31'816.2
2018-Apr-16 08:59N 01°12' E 103°39'613.3
2018-Apr-16 08:30N 01°16' E 103°45'3 5.2
2018-Apr-16 07:58N 01°16' E 103°47'0 0.1
2018-Apr-16 07:28N 01°16' E 103°47'0 0.0
2018-Apr-16 06:58N 01°16' E 103°47'0 0.0
2018-Apr-16 06:28N 01°16' E 103°47'0 0.0
2018-Apr-16 05:58N 01°16' E 103°47'0 0.0
2018-Apr-16 05:28N 01°16' E 103°47'0 0.0
2018-Apr-16 04:58N 01°16' E 103°47'0 0.0
2018-Apr-16 04:25N 01°16' E 103°47'0 0.0
2018-Apr-16 03:58N 01°16' E 103°47'0 0.0
2018-Apr-16 03:28N 01°16' E 103°47'0 0.0
2018-Apr-16 02:58N 01°16' E 103°47'0 0.0
2018-Apr-16 02:28N 01°16' E 103°47'0 0.0
2018-Apr-16 01:58N 01°16' E 103°47'0 0.0
2018-Apr-16 01:28N 01°16' E 103°47'0 0.0
2018-Apr-16 00:58N 01°16' E 103°47'0 0.0
2018-Apr-16 00:28N 01°16' E 103°47'0 0.0
2018-Apr-15 23:58N 01°16' E 103°47'0 0.0
2018-Apr-15 23:28N 01°16' E 103°47'0 0.0
2018-Apr-15 22:58N 01°16' E 103°47'0 0.0
2018-Apr-15 22:28N 01°16' E 103°47'0 0.0
2018-Apr-15 21:58N 01°16' E 103°47'0 0.0
2018-Apr-15 21:28N 01°16' E 103°47'0 0.0
2018-Apr-15 20:58N 01°16' E 103°47'0 0.0
2018-Apr-15 20:28N 01°16' E 103°47'0 0.0
2018-Apr-15 19:58N 01°16' E 103°47'0 0.0
2018-Apr-15 19:28N 01°16' E 103°47'0 0.0
2018-Apr-15 18:58N 01°16' E 103°47'0 0.0
2018-Apr-15 18:28N 01°16' E 103°47'0 0.0
2018-Apr-15 17:58N 01°16' E 103°47'0 0.0
2018-Apr-15 17:28N 01°16' E 103°47'0 0.0
2018-Apr-15 16:52N 01°16' E 103°47'0 0.1
2018-Apr-15 16:29N 01°16' E 103°47'1 2.1
2018-Apr-15 16:00N 01°15' E 103°47'3 5.4
2018-Apr-15 15:30N 01°13' E 103°49'713.3
2018-Apr-15 15:00N 01°14' E 103°55'2 4.7
2018-Apr-15 14:31N 01°15' E 103°57'3 5.9
2018-Apr-15 14:00N 01°15' E 104°00'1710.7
2018-Apr-15 12:23N 01°18' E 104°18'410.5
2018-Apr-15 11:58N 01°20' E 104°21'  
2018-Apr-11 17:10N 23°11' E 117°43'419.9
2018-Apr-11 16:59N 23°15' E 117°45'919.5
2018-Apr-11 16:30N 23°23' E 117°49'1119.8
2018-Apr-11 15:59N 23°31' E 117°56'919.7
2018-Apr-11 15:30N 23°38' E 118°03'1019.6
2018-Apr-11 15:00N 23°47' E 118°08'1019.4
2018-Apr-11 14:30N 23°55' E 118°14'1019.3
2018-Apr-11 14:00N 24°03' E 118°19'918.5
2018-Apr-11 13:30N 24°13' E 118°18'919.1
2018-Apr-11 13:00N 24°19' E 118°11'713.5
2018-Apr-11 12:30N 24°24' E 118°06'510.1
2018-Apr-11 12:00N 24°29' E 118°04'2 3.6
2018-Apr-11 11:28N 24°31' E 118°05'0 0.0
2018-Apr-11 10:58N 24°31' E 118°05'0 0.0
2018-Apr-11 10:28N 24°31' E 118°05'0 0.0
2018-Apr-11 09:58N 24°31' E 118°05'0 0.0
2018-Apr-11 09:28N 24°31' E 118°05'0 0.0
2018-Apr-11 08:58N 24°31' E 118°05'0 0.0
2018-Apr-11 08:28N 24°31' E 118°05'0 0.0
2018-Apr-11 07:58N 24°31' E 118°05'0 0.0
2018-Apr-11 07:28N 24°31' E 118°05'0 0.0
2018-Apr-11 06:58N 24°31' E 118°05'0 0.0
2018-Apr-11 06:28N 24°31' E 118°05'0 0.0
2018-Apr-11 05:58N 24°31' E 118°05'0 0.0
2018-Apr-11 05:19N 24°31' E 118°05'0 0.0
2018-Apr-11 04:55N 24°31' E 118°05'0 0.0
2018-Apr-11 04:28N 24°31' E 118°05'0 0.0
2018-Apr-11 03:58N 24°31' E 118°05'0 0.0
2018-Apr-11 03:28N 24°31' E 118°05'0 0.0
2018-Apr-11 02:58N 24°31' E 118°05'0 0.0
2018-Apr-11 02:28N 24°31' E 118°05'1 1.1
2018-Apr-11 02:00N 24°30' E 118°04'5 9.1
2018-Apr-11 01:30N 24°26' E 118°04'510.6
2018-Apr-11 01:00N 24°22' E 118°08'5 9.2
2018-Apr-11 00:30N 24°19' E 118°12'611.7
2018-Apr-11 00:00N 24°15' E 118°17'713.5
2018-Apr-10 23:30N 24°14' E 118°24'815.2
2018-Apr-10 23:00N 24°16' E 118°32'817.0
2018-Apr-10 22:30N 24°20' E 118°40'  
2018-Apr-07 23:43N 31°15' E 121°59'418.9
2018-Apr-07 23:30N 31°16' E 121°55'3 5.9
2018-Apr-07 22:59N 31°16' E 121°51'918.2
2018-Apr-07 22:31N 31°20' E 121°42'1 2.2
2018-Apr-07 21:55N 31°20' E 121°41'5 9.6
2018-Apr-07 21:24N 31°22' E 121°35'0 0.1
2018-Apr-07 20:48N 31°22' E 121°35'0 0.0
2018-Apr-07 20:30N 31°22' E 121°35'0 0.0
2018-Apr-07 19:33N 31°22' E 121°35'0 0.1
2018-Apr-07 19:30N 31°22' E 121°35'0 0.0
2018-Apr-07 19:00N 31°22' E 121°35'0 0.0
2018-Apr-07 18:24N 31°22' E 121°35'0 0.0
2018-Apr-07 17:42N 31°22' E 121°35'0 0.3
2018-Apr-07 17:30N 31°22' E 121°35'0 0.1
2018-Apr-07 16:54N 31°22' E 121°35'0 0.0
2018-Apr-07 16:30N 31°22' E 121°35'0 0.1
2018-Apr-07 15:48N 31°22' E 121°35'0 0.1
2018-Apr-07 15:18N 31°22' E 121°35'0 0.0
2018-Apr-07 14:54N 31°22' E 121°35'0 0.0
2018-Apr-07 08:54N 31°22' E 121°35'0 0.0
2018-Apr-07 07:42N 31°22' E 121°35'0 0.1
2018-Apr-07 07:12N 31°22' E 121°35'0 0.0
2018-Apr-07 06:42N 31°22' E 121°35'0 0.0
2018-Apr-07 06:18N 31°22' E 121°35'0 0.0
2018-Apr-07 06:00N 31°22' E 121°35'0 0.0
2018-Apr-07 05:12N 31°22' E 121°35'0 0.0
2018-Apr-07 04:54N 31°22' E 121°35'0 0.0
2018-Apr-07 04:24N 31°22' E 121°35'0 0.0
2018-Apr-07 03:18N 31°22' E 121°35'0 0.0
2018-Apr-07 02:18N 31°22' E 121°35'0 0.0
2018-Apr-07 01:54N 31°22' E 121°35'0 0.0
2018-Apr-07 01:18N 31°22' E 121°35'0 0.0
2018-Apr-07 00:54N 31°22' E 121°35'0 0.0
2018-Apr-07 00:30N 31°22' E 121°35'0 0.0
2018-Apr-06 23:54N 31°22' E 121°35'0 0.0
2018-Apr-06 22:26N 31°22' E 121°35'0 0.0
2018-Apr-06 22:00N 31°22' E 121°35'0 0.5
2018-Apr-06 21:28N 31°23' E 121°35'0 0.3
2018-Apr-06 20:56N 31°23' E 121°35'0 1.0
2018-Apr-06 20:29N 31°23' E 121°36'2 5.0
2018-Apr-06 20:00N 31°22' E 121°38'510.3
2018-Apr-06 19:29N 31°19' E 121°44'4 7.7
2018-Apr-06 19:00N 31°18' E 121°48'511.1
2018-Apr-06 18:30N 31°16' E 121°54'612.0
2018-Apr-06 18:00N 31°15' E 122°01'510.7
2018-Apr-06 17:30N 31°13' E 122°07'510.1
2018-Apr-06 16:59N 31°10' E 122°12'5 9.9
2018-Apr-06 16:30N 31°07' E 122°16'5 9.3
2018-Apr-06 16:00N 31°06' E 122°22'4 8.7
2018-Apr-06 15:29N 31°08' E 122°27'  

Dump ship's entire track history